Terminal Aerodrome Forecast
Issued by NWS Lake Charles, LA

Home | Current Version | Previous Version | Text Only | Print | Product List | Glossary On
Versions: 1 2 3 4 5 6 7 8 9 10 11 12 13 14 15 16 17 18 19 20 21 22 23
000
FTUS44 KLCH 220200 AAA
TAFAEX
TAF AMD
KAEX 220255Z 2203/2224 15006KT P6SM OVC004
      TEMPO 2210/2214 1/4SM FG VV002
     FM221600 20012G20KT P6SM OVC015=

USA.gov is the U.S. government's official web portal to all federal, state and local government web resources and services.